sensor_id;sensor_type;location;lat;lon;timestamp;pressure;altitude;pressure_sealevel;temperature;humidity
13869;BME280;7004;48.206;16.402;2023-06-22T00:00:56;100035.41;;;22.93;100.00
13869;BME280;7004;48.206;16.402;2023-06-22T00:03:25;100027.16;;;23.10;100.00
13869;BME280;7004;48.206;16.402;2023-06-22T00:05:52;100020.19;;;23.41;100.00
13869;BME280;7004;48.206;16.402;2023-06-22T00:08:19;100015.22;;;22.97;100.00
13869;BME280;7004;48.206;16.402;2023-06-22T00:10:46;100016.97;;;23.37;100.00
13869;BME280;7004;48.206;16.402;2023-06-22T00:13:14;100012.81;;;23.26;100.00
13869;BME280;7004;48.206;16.402;2023-06-22T00:15:41;100012.50;;;22.72;100.00
13869;BME280;7004;48.206;16.402;2023-06-22T00:18:09;100013.69;;;22.94;100.00
13869;BME280;7004;48.206;16.402;2023-06-22T00:20:35;100010.81;;;23.20;100.00
13869;BME280;7004;48.206;16.402;2023-06-22T00:23:05;100010.16;;;22.53;100.00
13869;BME280;7004;48.206;16.402;2023-06-22T00:25:38;100021.09;;;22.51;100.00
13869;BME280;7004;48.206;16.402;2023-06-22T00:28:08;100012.84;;;22.94;100.00
13869;BME280;7004;48.206;16.402;2023-06-22T00:30:34;100011.00;;;23.02;100.00
13869;BME280;7004;48.206;16.402;2023-06-22T00:33:00;100008.28;;;22.29;100.00
13869;BME280;7004;48.206;16.402;2023-06-22T00:35:27;100015.56;;;22.44;100.00
13869;BME280;7004;48.206;16.402;2023-06-22T00:37:58;100011.16;;;22.93;100.00
13869;BME280;7004;48.206;16.402;2023-06-22T00:40:32;100004.44;;;22.80;100.00
13869;BME280;7004;48.206;16.402;2023-06-22T00:42:58;99999.72;;;22.74;100.00
13869;BME280;7004;48.206;16.402;2023-06-22T00:45:26;100000.06;;;22.63;100.00
13869;BME280;7004;48.206;16.402;2023-06-22T00:47:54;100002.22;;;22.59;100.00
13869;BME280;7004;48.206;16.402;2023-06-22T00:50:24;99998.34;;;22.95;100.00
13869;BME280;7004;48.206;16.402;2023-06-22T00:52:57;99994.28;;;22.90;100.00
13869;BME280;7004;48.206;16.402;2023-06-22T00:55:25;99996.66;;;22.85;100.00
13869;BME280;7004;48.206;16.402;2023-06-22T00:57:52;99996.50;;;22.87;100.00
13869;BME280;7004;48.206;16.402;2023-06-22T01:00:25;99988.94;;;22.66;100.00
13869;BME280;7004;48.206;16.402;2023-06-22T01:02:53;100006.44;;;22.29;100.00
13869;BME280;7004;48.206;16.402;2023-06-22T01:05:21;100003.50;;;22.06;100.00
13869;BME280;7004;48.206;16.402;2023-06-22T01:11:23;99992.28;;;22.27;100.00
13869;BME280;7004;48.206;16.402;2023-06-22T01:14:04;99987.41;;;22.31;100.00
13869;BME280;7004;48.206;16.402;2023-06-22T01:16:42;99982.53;;;22.51;100.00
13869;BME280;7004;48.206;16.402;2023-06-22T01:21:55;99975.63;;;22.48;100.00
13869;BME280;7004;48.206;16.402;2023-06-22T01:24:41;99981.19;;;22.22;100.00
13869;BME280;7004;48.206;16.402;2023-06-22T01:27:47;99983.81;;;21.97;100.00
13869;BME280;7004;48.206;16.402;2023-06-22T01:30:16;99987.41;;;22.22;100.00
13869;BME280;7004;48.206;16.402;2023-06-22T01:32:44;99988.19;;;22.07;100.00
13869;BME280;7004;48.206;16.402;2023-06-22T01:35:12;99970.53;;;22.12;100.00
13869;BME280;7004;48.206;16.402;2023-06-22T01:37:39;99964.44;;;21.94;100.00
13869;BME280;7004;48.206;16.402;2023-06-22T01:40:07;99973.69;;;21.91;100.00
13869;BME280;7004;48.206;16.402;2023-06-22T01:42:35;99980.50;;;21.61;100.00
13869;BME280;7004;48.206;16.402;2023-06-22T01:45:03;99977.97;;;21.33;100.00
13869;BME280;7004;48.206;16.402;2023-06-22T01:47:31;99990.00;;;21.90;100.00
13869;BME280;7004;48.206;16.402;2023-06-22T01:49:58;99976.97;;;22.19;100.00
13869;BME280;7004;48.206;16.402;2023-06-22T01:52:24;99971.22;;;22.14;100.00
13869;BME280;7004;48.206;16.402;2023-06-22T01:54:50;99962.69;;;22.27;100.00
13869;BME280;7004;48.206;16.402;2023-06-22T01:57:17;99961.28;;;22.15;100.00
13869;BME280;7004;48.206;16.402;2023-06-22T02:00:03;99966.66;;;22.15;100.00
13869;BME280;7004;48.206;16.402;2023-06-22T02:02:44;99970.41;;;22.22;100.00
13869;BME280;7004;48.206;16.402;2023-06-22T02:05:17;99966.28;;;21.85;100.00
13869;BME280;7004;48.206;16.402;2023-06-22T02:10:32;99952.84;;;22.01;100.00
13869;BME280;7004;48.206;16.402;2023-06-22T02:13:01;99962.75;;;21.85;100.00
13869;BME280;7004;48.206;16.402;2023-06-22T02:15:28;99955.78;;;21.74;100.00
13869;BME280;7004;48.206;16.402;2023-06-22T02:17:55;99962.31;;;21.55;100.00
13869;BME280;7004;48.206;16.402;2023-06-22T02:20:23;99964.41;;;21.86;100.00
13869;BME280;7004;48.206;16.402;2023-06-22T02:22:50;99966.13;;;21.95;100.00
13869;BME280;7004;48.206;16.402;2023-06-22T02:25:16;99964.00;;;22.23;100.00
13869;BME280;7004;48.206;16.402;2023-06-22T02:27:42;99961.41;;;21.97;100.00
13869;BME280;7004;48.206;16.402;2023-06-22T02:30:09;99964.91;;;21.81;100.00
13869;BME280;7004;48.206;16.402;2023-06-22T02:32:36;99964.56;;;21.84;100.00
13869;BME280;7004;48.206;16.402;2023-06-22T02:35:02;99970.47;;;21.79;100.00
13869;BME280;7004;48.206;16.402;2023-06-22T02:37:32;99970.91;;;21.58;100.00
13869;BME280;7004;48.206;16.402;2023-06-22T02:39:58;99965.31;;;22.02;100.00
13869;BME280;7004;48.206;16.402;2023-06-22T02:42:24;99960.50;;;21.64;100.00
13869;BME280;7004;48.206;16.402;2023-06-22T02:44:50;99956.78;;;21.56;100.00
13869;BME280;7004;48.206;16.402;2023-06-22T02:47:16;99956.13;;;21.63;100.00
13869;BME280;7004;48.206;16.402;2023-06-22T02:49:43;99947.25;;;21.78;100.00
13869;BME280;7004;48.206;16.402;2023-06-22T02:52:10;99955.16;;;21.72;100.00
13869;BME280;7004;48.206;16.402;2023-06-22T02:54:36;99953.38;;;21.46;100.00
13869;BME280;7004;48.206;16.402;2023-06-22T02:57:03;99953.66;;;21.09;100.00
13869;BME280;7004;48.206;16.402;2023-06-22T02:59:29;99962.28;;;21.21;100.00
13869;BME280;7004;48.206;16.402;2023-06-22T03:01:55;99949.25;;;21.34;100.00
13869;BME280;7004;48.206;16.402;2023-06-22T03:04:22;99954.72;;;21.50;100.00
13869;BME280;7004;48.206;16.402;2023-06-22T03:06:48;99956.44;;;21.25;100.00
13869;BME280;7004;48.206;16.402;2023-06-22T03:09:17;99966.94;;;21.10;100.00
13869;BME280;7004;48.206;16.402;2023-06-22T03:11:43;99959.94;;;21.52;100.00
13869;BME280;7004;48.206;16.402;2023-06-22T03:14:09;99953.16;;;21.40;100.00
13869;BME280;7004;48.206;16.402;2023-06-22T03:16:35;99953.38;;;21.46;100.00
13869;BME280;7004;48.206;16.402;2023-06-22T03:19:02;99951.22;;;21.24;100.00
13869;BME280;7004;48.206;16.402;2023-06-22T03:21:29;99967.44;;;21.40;100.00
13869;BME280;7004;48.206;16.402;2023-06-22T03:23:55;99956.06;;;21.46;100.00
13869;BME280;7004;48.206;16.402;2023-06-22T03:26:22;99963.31;;;21.54;100.00
13869;BME280;7004;48.206;16.402;2023-06-22T03:28:49;99968.56;;;21.64;100.00
13869;BME280;7004;48.206;16.402;2023-06-22T03:31:15;99957.72;;;21.47;100.00
13869;BME280;7004;48.206;16.402;2023-06-22T03:33:41;99959.47;;;21.56;100.00
13869;BME280;7004;48.206;16.402;2023-06-22T03:36:08;99957.94;;;20.93;100.00
13869;BME280;7004;48.206;16.402;2023-06-22T03:38:34;99963.22;;;21.11;100.00
13869;BME280;7004;48.206;16.402;2023-06-22T03:41:00;99965.63;;;21.14;100.00
13869;BME280;7004;48.206;16.402;2023-06-22T03:43:26;99964.25;;;21.10;100.00
13869;BME280;7004;48.206;16.402;2023-06-22T03:45:53;99964.72;;;21.06;100.00
13869;BME280;7004;48.206;16.402;2023-06-22T03:48:19;99965.06;;;21.37;100.00
13869;BME280;7004;48.206;16.402;2023-06-22T03:50:45;99962.75;;;21.16;100.00
13869;BME280;7004;48.206;16.402;2023-06-22T03:53:12;99961.25;;;21.48;100.00
13869;BME280;7004;48.206;16.402;2023-06-22T03:55:48;99962.34;;;21.71;100.00
13869;BME280;7004;48.206;16.402;2023-06-22T03:58:16;99973.97;;;21.72;100.00
13869;BME280;7004;48.206;16.402;2023-06-22T04:00:49;99967.16;;;21.43;100.00
13869;BME280;7004;48.206;16.402;2023-06-22T04:03:16;99966.88;;;21.71;100.00
13869;BME280;7004;48.206;16.402;2023-06-22T04:05:44;99966.56;;;21.74;100.00
13869;BME280;7004;48.206;16.402;2023-06-22T04:08:12;99956.34;;;21.77;100.00
13869;BME280;7004;48.206;16.402;2023-06-22T04:10:39;99960.41;;;21.98;100.00
13869;BME280;7004;48.206;16.402;2023-06-22T04:13:05;99962.22;;;21.81;100.00
13869;BME280;7004;48.206;16.402;2023-06-22T04:15:31;99957.03;;;21.88;100.00
13869;BME280;7004;48.206;16.402;2023-06-22T04:17:57;99957.88;;;21.88;100.00
13869;BME280;7004;48.206;16.402;2023-06-22T04:20:24;99949.03;;;22.20;100.00
13869;BME280;7004;48.206;16.402;2023-06-22T04:22:54;99942.28;;;22.16;100.00
13869;BME280;7004;48.206;16.402;2023-06-22T04:25:20;99944.78;;;22.10;100.00
13869;BME280;7004;48.206;16.402;2023-06-22T04:27:47;99940.75;;;22.06;100.00
13869;BME280;7004;48.206;16.402;2023-06-22T04:30:14;99945.63;;;22.10;100.00
13869;BME280;7004;48.206;16.402;2023-06-22T04:32:43;99935.03;;;22.00;100.00
13869;BME280;7004;48.206;16.402;2023-06-22T04:35:11;99938.97;;;22.47;100.00
13869;BME280;7004;48.206;16.402;2023-06-22T04:37:37;99928.34;;;22.70;100.00
13869;BME280;7004;48.206;16.402;2023-06-22T04:40:06;99941.13;;;22.43;100.00
13869;BME280;7004;48.206;16.402;2023-06-22T04:42:35;99949.03;;;22.45;100.00
13869;BME280;7004;48.206;16.402;2023-06-22T04:45:03;99948.69;;;22.56;100.00
13869;BME280;7004;48.206;16.402;2023-06-22T04:47:30;99945.84;;;22.33;100.00
13869;BME280;7004;48.206;16.402;2023-06-22T04:49:57;99950.22;;;22.75;100.00
13869;BME280;7004;48.206;16.402;2023-06-22T04:52:23;99954.09;;;22.73;100.00
13869;BME280;7004;48.206;16.402;2023-06-22T04:54:50;99964.00;;;22.64;100.00
13869;BME280;7004;48.206;16.402;2023-06-22T04:57:23;99963.50;;;22.77;100.00
13869;BME280;7004;48.206;16.402;2023-06-22T04:59:56;99965.72;;;22.73;100.00
13869;BME280;7004;48.206;16.402;2023-06-22T05:02:22;99960.13;;;22.99;100.00
13869;BME280;7004;48.206;16.402;2023-06-22T05:04:53;99969.19;;;23.15;100.00
13869;BME280;7004;48.206;16.402;2023-06-22T05:07:22;99971.59;;;23.01;100.00
13869;BME280;7004;48.206;16.402;2023-06-22T05:09:51;99969.72;;;22.85;100.00
13869;BME280;7004;48.206;16.402;2023-06-22T05:12:17;99968.53;;;22.96;100.00
13869;BME280;7004;48.206;16.402;2023-06-22T05:14:43;99968.53;;;23.13;100.00
13869;BME280;7004;48.206;16.402;2023-06-22T05:17:09;99971.91;;;23.54;98.74
13869;BME280;7004;48.206;16.402;2023-06-22T05:19:42;99974.03;;;23.36;99.94
13869;BME280;7004;48.206;16.402;2023-06-22T05:22:17;99971.69;;;23.32;100.00
13869;BME280;7004;48.206;16.402;2023-06-22T05:24:44;99970.72;;;23.57;98.78
13869;BME280;7004;48.206;16.402;2023-06-22T05:27:10;99972.34;;;23.66;95.08
13869;BME280;7004;48.206;16.402;2023-06-22T05:29:37;99971.25;;;23.52;98.37
13869;BME280;7004;48.206;16.402;2023-06-22T05:32:04;99969.94;;;23.87;97.51
13869;BME280;7004;48.206;16.402;2023-06-22T05:34:30;99967.81;;;23.74;95.88
13869;BME280;7004;48.206;16.402;2023-06-22T05:36:56;99966.88;;;23.90;95.70
13869;BME280;7004;48.206;16.402;2023-06-22T05:39:24;99964.84;;;23.92;94.75
13869;BME280;7004;48.206;16.402;2023-06-22T05:41:52;99955.50;;;24.03;94.96
13869;BME280;7004;48.206;16.402;2023-06-22T05:44:18;99959.28;;;24.17;93.68
13869;BME280;7004;48.206;16.402;2023-06-22T05:46:45;99956.72;;;24.47;93.49
13869;BME280;7004;48.206;16.402;2023-06-22T05:49:13;99960.28;;;23.93;91.87
13869;BME280;7004;48.206;16.402;2023-06-22T05:51:40;99959.22;;;24.86;88.09
13869;BME280;7004;48.206;16.402;2023-06-22T05:54:07;99960.94;;;24.41;91.17
13869;BME280;7004;48.206;16.402;2023-06-22T05:56:34;99952.28;;;24.31;90.46
13869;BME280;7004;48.206;16.402;2023-06-22T05:59:00;99957.78;;;24.37;90.91
13869;BME280;7004;48.206;16.402;2023-06-22T06:01:27;99957.53;;;24.24;91.20
13869;BME280;7004;48.206;16.402;2023-06-22T06:03:53;99959.94;;;24.65;88.69
13869;BME280;7004;48.206;16.402;2023-06-22T06:06:19;99969.44;;;24.61;89.89
13869;BME280;7004;48.206;16.402;2023-06-22T06:08:54;99976.50;;;25.00;89.24
13869;BME280;7004;48.206;16.402;2023-06-22T06:11:24;99979.19;;;24.47;89.71
13869;BME280;7004;48.206;16.402;2023-06-22T06:14:00;99981.91;;;24.39;89.82
13869;BME280;7004;48.206;16.402;2023-06-22T06:16:26;99977.34;;;25.15;86.59
13869;BME280;7004;48.206;16.402;2023-06-22T06:18:53;99970.91;;;25.01;89.40
13869;BME280;7004;48.206;16.402;2023-06-22T06:21:22;99965.25;;;25.41;86.52
13869;BME280;7004;48.206;16.402;2023-06-22T06:23:48;99972.09;;;24.84;88.19
13869;BME280;7004;48.206;16.402;2023-06-22T06:26:14;99974.75;;;25.37;88.71
13869;BME280;7004;48.206;16.402;2023-06-22T06:28:43;99974.19;;;25.56;86.64
13869;BME280;7004;48.206;16.402;2023-06-22T06:31:09;99976.56;;;25.96;84.87
13869;BME280;7004;48.206;16.402;2023-06-22T06:33:36;99978.72;;;25.70;85.39
13869;BME280;7004;48.206;16.402;2023-06-22T06:36:02;99982.19;;;25.79;83.42
13869;BME280;7004;48.206;16.402;2023-06-22T06:38:32;99983.47;;;25.83;83.00
13869;BME280;7004;48.206;16.402;2023-06-22T06:40:58;99985.75;;;26.37;79.47
13869;BME280;7004;48.206;16.402;2023-06-22T06:43:25;99980.22;;;25.88;81.76
13869;BME280;7004;48.206;16.402;2023-06-22T06:45:51;99983.63;;;26.11;81.72
13869;BME280;7004;48.206;16.402;2023-06-22T06:48:17;99982.38;;;25.92;81.09
13869;BME280;7004;48.206;16.402;2023-06-22T06:50:43;99973.00;;;26.31;80.51
13869;BME280;7004;48.206;16.402;2023-06-22T06:53:10;99959.13;;;27.19;76.90
13869;BME280;7004;48.206;16.402;2023-06-22T06:55:36;99965.22;;;26.71;79.21
13869;BME280;7004;48.206;16.402;2023-06-22T06:58:02;99953.81;;;27.11;77.82
13869;BME280;7004;48.206;16.402;2023-06-22T07:00:33;99957.84;;;27.56;74.81
13869;BME280;7004;48.206;16.402;2023-06-22T07:03:00;99952.84;;;27.60;75.98
13869;BME280;7004;48.206;16.402;2023-06-22T07:05:26;99963.16;;;27.30;74.75
13869;BME280;7004;48.206;16.402;2023-06-22T07:07:52;99952.25;;;27.23;75.15
13869;BME280;7004;48.206;16.402;2023-06-22T07:10:19;99959.53;;;27.57;73.08
13869;BME280;7004;48.206;16.402;2023-06-22T07:12:46;99951.13;;;27.45;72.89
13869;BME280;7004;48.206;16.402;2023-06-22T07:15:13;99954.09;;;26.88;74.33
13869;BME280;7004;48.206;16.402;2023-06-22T07:17:40;99949.25;;;27.94;71.45
13869;BME280;7004;48.206;16.402;2023-06-22T07:20:07;99947.00;;;28.18;71.75
13869;BME280;7004;48.206;16.402;2023-06-22T07:22:43;99957.97;;;27.07;75.97
13869;BME280;7004;48.206;16.402;2023-06-22T07:25:10;99945.22;;;27.83;71.63
13869;BME280;7004;48.206;16.402;2023-06-22T07:27:45;99940.03;;;27.82;72.14
13869;BME280;7004;48.206;16.402;2023-06-22T07:30:12;99949.75;;;28.71;67.81
13869;BME280;7004;48.206;16.402;2023-06-22T07:32:39;99943.69;;;28.75;68.00
13869;BME280;7004;48.206;16.402;2023-06-22T07:35:06;99940.97;;;28.56;68.29
13869;BME280;7004;48.206;16.402;2023-06-22T07:37:32;99938.19;;;29.15;65.92
13869;BME280;7004;48.206;16.402;2023-06-22T07:39:59;99958.53;;;28.66;68.05
13869;BME280;7004;48.206;16.402;2023-06-22T07:42:26;99948.06;;;29.10;66.94
13869;BME280;7004;48.206;16.402;2023-06-22T07:44:53;99953.03;;;29.39;65.87
13869;BME280;7004;48.206;16.402;2023-06-22T07:47:20;99956.84;;;29.83;60.80
13869;BME280;7004;48.206;16.402;2023-06-22T07:49:51;99959.97;;;29.15;65.49
13869;BME280;7004;48.206;16.402;2023-06-22T07:52:17;99949.91;;;29.03;63.67
13869;BME280;7004;48.206;16.402;2023-06-22T07:54:43;99944.34;;;30.08;59.95
13869;BME280;7004;48.206;16.402;2023-06-22T07:57:09;99937.97;;;29.24;63.28
13869;BME280;7004;48.206;16.402;2023-06-22T07:59:36;99932.78;;;29.09;62.91
13869;BME280;7004;48.206;16.402;2023-06-22T08:02:04;99939.72;;;29.70;63.15
13869;BME280;7004;48.206;16.402;2023-06-22T08:04:30;99935.75;;;30.04;59.64
13869;BME280;7004;48.206;16.402;2023-06-22T08:07:00;99938.25;;;28.95;61.29
13869;BME280;7004;48.206;16.402;2023-06-22T08:09:29;99946.00;;;28.79;62.90
13869;BME280;7004;48.206;16.402;2023-06-22T08:11:55;99944.28;;;29.04;61.22
13869;BME280;7004;48.206;16.402;2023-06-22T08:14:24;99936.34;;;29.09;62.63
13869;BME280;7004;48.206;16.402;2023-06-22T08:16:51;99937.06;;;29.50;60.56
13869;BME280;7004;48.206;16.402;2023-06-22T08:19:17;99930.81;;;29.36;59.63
13869;BME280;7004;48.206;16.402;2023-06-22T08:21:44;99934.81;;;29.33;61.06
13869;BME280;7004;48.206;16.402;2023-06-22T08:24:10;99943.56;;;30.57;56.27
13869;BME280;7004;48.206;16.402;2023-06-22T08:26:36;99943.00;;;30.74;57.81
13869;BME280;7004;48.206;16.402;2023-06-22T08:29:03;99944.34;;;30.64;59.91
13869;BME280;7004;48.206;16.402;2023-06-22T08:31:31;99946.41;;;30.12;58.94
13869;BME280;7004;48.206;16.402;2023-06-22T08:33:59;99944.06;;;30.73;58.12
13869;BME280;7004;48.206;16.402;2023-06-22T08:36:25;99942.13;;;29.91;60.09
13869;BME280;7004;48.206;16.402;2023-06-22T08:38:54;99939.34;;;30.61;56.69
13869;BME280;7004;48.206;16.402;2023-06-22T08:41:23;99928.44;;;30.61;57.41
13869;BME280;7004;48.206;16.402;2023-06-22T08:43:50;99935.78;;;30.86;55.71
13869;BME280;7004;48.206;16.402;2023-06-22T08:46:16;99935.22;;;30.52;55.71
13869;BME280;7004;48.206;16.402;2023-06-22T08:48:45;99935.97;;;30.02;53.35
13869;BME280;7004;48.206;16.402;2023-06-22T08:51:12;99932.19;;;30.35;55.98
13869;BME280;7004;48.206;16.402;2023-06-22T08:53:38;99920.66;;;31.27;53.46
13869;BME280;7004;48.206;16.402;2023-06-22T08:56:04;99916.84;;;31.95;51.96
13869;BME280;7004;48.206;16.402;2023-06-22T08:58:30;99919.22;;;31.24;51.39
13869;BME280;7004;48.206;16.402;2023-06-22T09:00:56;99922.75;;;31.06;54.47
13869;BME280;7004;48.206;16.402;2023-06-22T09:03:22;99919.88;;;30.83;54.02
13869;BME280;7004;48.206;16.402;2023-06-22T09:05:52;99928.06;;;31.01;55.33
13869;BME280;7004;48.206;16.402;2023-06-22T09:08:18;99910.38;;;32.08;52.15
13869;BME280;7004;48.206;16.402;2023-06-22T09:10:44;99921.25;;;31.29;53.98
13869;BME280;7004;48.206;16.402;2023-06-22T09:13:10;99929.25;;;30.87;49.90
13869;BME280;7004;48.206;16.402;2023-06-22T09:15:36;99920.50;;;31.03;51.27
13869;BME280;7004;48.206;16.402;2023-06-22T09:18:03;99915.88;;;31.04;51.93
13869;BME280;7004;48.206;16.402;2023-06-22T09:20:30;99914.22;;;31.03;53.62
13869;BME280;7004;48.206;16.402;2023-06-22T09:22:57;99910.72;;;31.51;52.45
13869;BME280;7004;48.206;16.402;2023-06-22T09:25:23;99915.88;;;30.79;50.70
13869;BME280;7004;48.206;16.402;2023-06-22T09:27:50;99910.25;;;31.84;50.09
13869;BME280;7004;48.206;16.402;2023-06-22T09:30:16;99902.97;;;31.11;52.39
13869;BME280;7004;48.206;16.402;2023-06-22T09:32:42;99906.50;;;31.67;53.58
13869;BME280;7004;48.206;16.402;2023-06-22T09:35:09;99907.19;;;31.92;50.14
13869;BME280;7004;48.206;16.402;2023-06-22T09:37:37;99909.28;;;31.97;49.33
13869;BME280;7004;48.206;16.402;2023-06-22T09:40:05;99904.13;;;31.40;49.54
13869;BME280;7004;48.206;16.402;2023-06-22T09:42:36;99900.97;;;32.69;47.08
13869;BME280;7004;48.206;16.402;2023-06-22T09:45:03;99894.91;;;31.83;50.93
13869;BME280;7004;48.206;16.402;2023-06-22T09:47:30;99891.47;;;31.76;50.10
13869;BME280;7004;48.206;16.402;2023-06-22T09:49:56;99894.13;;;31.64;46.20
13869;BME280;7004;48.206;16.402;2023-06-22T09:52:25;99883.88;;;31.78;47.41
13869;BME280;7004;48.206;16.402;2023-06-22T09:54:51;99879.53;;;32.78;47.57
13869;BME280;7004;48.206;16.402;2023-06-22T09:57:17;99884.44;;;32.64;48.98
13869;BME280;7004;48.206;16.402;2023-06-22T09:59:43;99880.81;;;31.86;47.86
13869;BME280;7004;48.206;16.402;2023-06-22T10:02:09;99884.72;;;32.32;47.10
13869;BME280;7004;48.206;16.402;2023-06-22T10:04:35;99885.19;;;32.17;47.51
13869;BME280;7004;48.206;16.402;2023-06-22T10:07:02;99887.44;;;31.90;47.08
13869;BME280;7004;48.206;16.402;2023-06-22T10:09:28;99882.84;;;32.68;46.95
13869;BME280;7004;48.206;16.402;2023-06-22T10:11:56;99884.31;;;32.05;48.11
13869;BME280;7004;48.206;16.402;2023-06-22T10:14:22;99880.13;;;32.68;47.61
13869;BME280;7004;48.206;16.402;2023-06-22T10:16:52;99882.47;;;32.29;46.00
13869;BME280;7004;48.206;16.402;2023-06-22T10:19:18;99879.41;;;32.84;50.34
13869;BME280;7004;48.206;16.402;2023-06-22T10:21:45;99875.47;;;33.04;48.99
13869;BME280;7004;48.206;16.402;2023-06-22T10:24:11;99879.50;;;32.31;48.17
13869;BME280;7004;48.206;16.402;2023-06-22T10:26:37;99881.38;;;32.07;47.36
13869;BME280;7004;48.206;16.402;2023-06-22T10:29:03;99870.81;;;31.31;47.70
13869;BME280;7004;48.206;16.402;2023-06-22T10:31:29;99876.09;;;31.93;44.39
13869;BME280;7004;48.206;16.402;2023-06-22T10:33:56;99876.59;;;32.56;43.44
13869;BME280;7004;48.206;16.402;2023-06-22T10:36:22;99873.94;;;32.84;43.68
13869;BME280;7004;48.206;16.402;2023-06-22T10:38:49;99872.88;;;32.50;44.15
13869;BME280;7004;48.206;16.402;2023-06-22T10:41:15;99862.06;;;32.67;43.75
13869;BME280;7004;48.206;16.402;2023-06-22T10:43:42;99855.22;;;32.93;43.79
13869;BME280;7004;48.206;16.402;2023-06-22T10:46:09;99854.66;;;33.03;41.65
13869;BME280;7004;48.206;16.402;2023-06-22T10:48:35;99860.69;;;32.34;42.68
13869;BME280;7004;48.206;16.402;2023-06-22T10:51:01;99859.06;;;33.44;43.98
13869;BME280;7004;48.206;16.402;2023-06-22T10:53:27;99862.03;;;32.79;41.87
13869;BME280;7004;48.206;16.402;2023-06-22T10:55:53;99856.09;;;32.70;44.79
13869;BME280;7004;48.206;16.402;2023-06-22T10:58:20;99848.75;;;33.23;44.49
13869;BME280;7004;48.206;16.402;2023-06-22T11:00:46;99843.19;;;32.94;44.92
13869;BME280;7004;48.206;16.402;2023-06-22T11:03:12;99843.94;;;32.66;44.81
13869;BME280;7004;48.206;16.402;2023-06-22T11:05:40;99836.56;;;32.90;44.04
13869;BME280;7004;48.206;16.402;2023-06-22T11:08:07;99833.97;;;33.64;42.76
13869;BME280;7004;48.206;16.402;2023-06-22T11:10:33;99837.16;;;32.45;42.26
13869;BME280;7004;48.206;16.402;2023-06-22T11:12:59;99827.91;;;32.58;42.18
13869;BME280;7004;48.206;16.402;2023-06-22T11:15:25;99826.44;;;32.91;43.91
13869;BME280;7004;48.206;16.402;2023-06-22T11:17:51;99829.38;;;33.13;43.26
13869;BME280;7004;48.206;16.402;2023-06-22T11:20:17;99817.78;;;32.70;42.63
13869;BME280;7004;48.206;16.402;2023-06-22T11:22:43;99813.00;;;33.29;42.05
13869;BME280;7004;48.206;16.402;2023-06-22T11:25:10;99814.31;;;32.39;43.68
13869;BME280;7004;48.206;16.402;2023-06-22T11:27:38;99810.88;;;33.32;43.29
13869;BME280;7004;48.206;16.402;2023-06-22T11:30:04;99816.75;;;33.12;42.93
13869;BME280;7004;48.206;16.402;2023-06-22T11:32:31;99809.84;;;32.97;42.56
13869;BME280;7004;48.206;16.402;2023-06-22T11:34:57;99805.41;;;32.79;42.38
13869;BME280;7004;48.206;16.402;2023-06-22T11:37:23;99803.25;;;33.79;42.32
13869;BME280;7004;48.206;16.402;2023-06-22T11:39:49;99801.75;;;33.71;42.68
13869;BME280;7004;48.206;16.402;2023-06-22T11:42:15;99799.81;;;33.55;40.34
13869;BME280;7004;48.206;16.402;2023-06-22T11:44:42;99799.50;;;32.99;41.64
13869;BME280;7004;48.206;16.402;2023-06-22T11:47:09;99796.50;;;32.72;42.11
13869;BME280;7004;48.206;16.402;2023-06-22T11:49:35;99804.50;;;33.71;41.44
13869;BME280;7004;48.206;16.402;2023-06-22T11:52:01;99795.44;;;33.88;42.49
13869;BME280;7004;48.206;16.402;2023-06-22T11:54:27;99796.28;;;33.88;42.43
13869;BME280;7004;48.206;16.402;2023-06-22T11:56:53;99799.94;;;33.94;42.34
13869;BME280;7004;48.206;16.402;2023-06-22T11:59:19;99793.16;;;32.70;41.73
13869;BME280;7004;48.206;16.402;2023-06-22T12:01:47;99794.81;;;33.23;42.02
13869;BME280;7004;48.206;16.402;2023-06-22T12:04:14;99795.69;;;33.69;41.64
13869;BME280;7004;48.206;16.402;2023-06-22T12:06:41;99792.94;;;33.41;41.56
13869;BME280;7004;48.206;16.402;2023-06-22T12:09:09;99793.19;;;33.68;42.93
13869;BME280;7004;48.206;16.402;2023-06-22T12:11:35;99793.69;;;33.82;42.58
13869;BME280;7004;48.206;16.402;2023-06-22T12:14:01;99794.97;;;33.17;41.51
13869;BME280;7004;48.206;16.402;2023-06-22T12:16:28;99794.16;;;33.33;41.14
13869;BME280;7004;48.206;16.402;2023-06-22T12:18:55;99794.69;;;33.92;41.14
13869;BME280;7004;48.206;16.402;2023-06-22T12:21:21;99790.38;;;33.51;42.73
13869;BME280;7004;48.206;16.402;2023-06-22T12:23:47;99791.06;;;33.01;42.32
13869;BME280;7004;48.206;16.402;2023-06-22T12:26:13;99778.84;;;33.49;41.30
13869;BME280;7004;48.206;16.402;2023-06-22T12:28:39;99779.84;;;32.38;42.64
13869;BME280;7004;48.206;16.402;2023-06-22T12:31:05;99774.88;;;33.11;41.96
13869;BME280;7004;48.206;16.402;2023-06-22T12:33:33;99770.28;;;33.74;42.88
13869;BME280;7004;48.206;16.402;2023-06-22T12:35:59;99764.63;;;33.98;43.03
13869;BME280;7004;48.206;16.402;2023-06-22T12:38:25;99766.28;;;33.99;41.56
13869;BME280;7004;48.206;16.402;2023-06-22T12:40:52;99770.50;;;33.72;42.16
13869;BME280;7004;48.206;16.402;2023-06-22T12:43:18;99767.19;;;34.04;42.27
13869;BME280;7004;48.206;16.402;2023-06-22T12:45:44;99762.47;;;33.66;42.29
13869;BME280;7004;48.206;16.402;2023-06-22T12:48:10;99755.50;;;33.92;42.61
13869;BME280;7004;48.206;16.402;2023-06-22T12:50:36;99755.00;;;33.78;43.32
13869;BME280;7004;48.206;16.402;2023-06-22T12:53:02;99752.81;;;33.63;43.46
13869;BME280;7004;48.206;16.402;2023-06-22T12:55:30;99751.63;;;32.73;42.95
13869;BME280;7004;48.206;16.402;2023-06-22T12:57:56;99749.09;;;32.83;42.62
13869;BME280;7004;48.206;16.402;2023-06-22T13:00:22;99750.91;;;33.64;41.90
13869;BME280;7004;48.206;16.402;2023-06-22T13:02:48;99741.06;;;33.34;43.19
13869;BME280;7004;48.206;16.402;2023-06-22T13:05:14;99746.66;;;32.99;42.81